sensor_id;sensor_type;location;lat;lon;timestamp;pressure;altitude;pressure_sealevel;temperature;humidity
56414;BME280;42318;48.452;19.526;2023-11-21T00:00:30;97626.09;;;19.00;61.73
56414;BME280;42318;48.452;19.526;2023-11-21T00:03:50;97642.41;;;19.05;61.56
56414;BME280;42318;48.452;19.526;2023-11-21T00:06:51;97637.25;;;19.04;61.97
56414;BME280;42318;48.452;19.526;2023-11-21T00:09:51;97640.22;;;19.02;61.74
56414;BME280;42318;48.452;19.526;2023-11-21T00:12:52;97642.41;;;19.05;61.63
56414;BME280;42318;48.452;19.526;2023-11-21T00:15:55;97655.16;;;19.05;61.70
56414;BME280;42318;48.452;19.526;2023-11-21T00:18:56;97643.47;;;19.04;61.63
56414;BME280;42318;48.452;19.526;2023-11-21T00:21:56;97651.91;;;19.03;62.00
56414;BME280;42318;48.452;19.526;2023-11-21T00:24:58;97635.88;;;19.01;61.91
56414;BME280;42318;48.452;19.526;2023-11-21T00:27:59;97631.53;;;19.00;61.86
56414;BME280;42318;48.452;19.526;2023-11-21T00:31:02;97635.34;;;19.04;61.72
56414;BME280;42318;48.452;19.526;2023-11-21T00:34:03;97636.97;;;19.05;61.79
56414;BME280;42318;48.452;19.526;2023-11-21T00:37:06;97642.66;;;19.04;61.63
56414;BME280;42318;48.452;19.526;2023-11-21T00:40:08;97641.84;;;19.03;62.02
56414;BME280;42318;48.452;19.526;2023-11-21T00:43:09;97653.25;;;19.05;61.77
56414;BME280;42318;48.452;19.526;2023-11-21T00:46:10;97648.91;;;19.04;61.86
56414;BME280;42318;48.452;19.526;2023-11-21T00:49:11;97638.31;;;19.03;61.79
56414;BME280;42318;48.452;19.526;2023-11-21T00:52:11;97637.25;;;19.04;61.79
56414;BME280;42318;48.452;19.526;2023-11-21T00:55:13;97638.06;;;19.04;61.60
56414;BME280;42318;48.452;19.526;2023-11-21T00:58:13;97632.88;;;19.03;62.15
56414;BME280;42318;48.452;19.526;2023-11-21T01:01:14;97643.22;;;19.01;61.82
56414;BME280;42318;48.452;19.526;2023-11-21T01:04:14;97636.16;;;19.00;61.81
56414;BME280;42318;48.452;19.526;2023-11-21T01:07:15;97647.81;;;19.00;61.78
56414;BME280;42318;48.452;19.526;2023-11-21T01:10:15;97648.63;;;19.01;61.98
56414;BME280;42318;48.452;19.526;2023-11-21T01:13:17;97633.97;;;19.02;61.96
56414;BME280;42318;48.452;19.526;2023-11-21T01:16:18;97630.19;;;19.03;61.82
56414;BME280;42318;48.452;19.526;2023-11-21T01:19:19;97628.53;;;19.02;61.51
56414;BME280;42318;48.452;19.526;2023-11-21T01:22:19;97623.94;;;19.02;61.97
56414;BME280;42318;48.452;19.526;2023-11-21T01:25:26;97630.19;;;19.03;61.78
56414;BME280;42318;48.452;19.526;2023-11-21T01:28:26;97627.72;;;19.01;61.71
56414;BME280;42318;48.452;19.526;2023-11-21T01:31:27;97616.88;;;18.96;61.73
56414;BME280;42318;48.452;19.526;2023-11-21T01:34:30;97615.78;;;19.02;61.88
56414;BME280;42318;48.452;19.526;2023-11-21T01:37:31;97615.25;;;19.00;61.85
56414;BME280;42318;48.452;19.526;2023-11-21T01:40:31;97614.16;;;19.01;61.45
56414;BME280;42318;48.452;19.526;2023-11-21T01:43:32;97621.50;;;19.01;61.84
56414;BME280;42318;48.452;19.526;2023-11-21T01:46:33;97629.38;;;19.02;61.74
56414;BME280;42318;48.452;19.526;2023-11-21T01:49:34;97625.00;;;19.01;61.84
56414;BME280;42318;48.452;19.526;2023-11-21T01:52:35;97619.84;;;19.00;61.56
56414;BME280;42318;48.452;19.526;2023-11-21T01:55:36;97631.53;;;19.00;61.82
56414;BME280;42318;48.452;19.526;2023-11-21T01:58:36;97644.84;;;19.02;61.81
56414;BME280;42318;48.452;19.526;2023-11-21T02:01:37;97642.38;;;19.00;61.59
56414;BME280;42318;48.452;19.526;2023-11-21T02:04:38;97633.16;;;19.01;61.66
56414;BME280;42318;48.452;19.526;2023-11-21T02:07:40;97631.53;;;19.00;61.56
56414;BME280;42318;48.452;19.526;2023-11-21T02:10:40;97627.47;;;18.98;61.78
56414;BME280;42318;48.452;19.526;2023-11-21T02:13:41;97634.25;;;19.00;61.47
56414;BME280;42318;48.452;19.526;2023-11-21T02:16:46;97621.75;;;18.99;61.85
56414;BME280;42318;48.452;19.526;2023-11-21T02:19:49;97616.31;;;18.99;61.48
56414;BME280;42318;48.452;19.526;2023-11-21T02:22:55;97619.84;;;19.00;61.78
56414;BME280;42318;48.452;19.526;2023-11-21T02:25:59;97614.97;;;18.97;61.48
56414;BME280;42318;48.452;19.526;2023-11-21T02:29:04;97622.56;;;19.00;61.54
56414;BME280;42318;48.452;19.526;2023-11-21T02:32:05;97617.16;;;19.00;61.49
56414;BME280;42318;48.452;19.526;2023-11-21T02:35:06;97620.66;;;19.00;61.78
56414;BME280;42318;48.452;19.526;2023-11-21T02:38:08;97616.31;;;18.99;61.74
56414;BME280;42318;48.452;19.526;2023-11-21T02:41:09;97612.53;;;19.00;61.56
56414;BME280;42318;48.452;19.526;2023-11-21T02:44:10;97622.03;;;18.98;61.47
56414;BME280;42318;48.452;19.526;2023-11-21T02:47:10;97606.00;;;18.96;61.86
56414;BME280;42318;48.452;19.526;2023-11-21T02:50:11;97613.63;;;18.99;61.61
56414;BME280;42318;48.452;19.526;2023-11-21T02:53:12;97618.22;;;18.99;61.57
56414;BME280;42318;48.452;19.526;2023-11-21T02:56:13;97625.56;;;18.98;61.38
56414;BME280;42318;48.452;19.526;2023-11-21T02:59:13;97612.53;;;18.95;61.98
56414;BME280;42318;48.452;19.526;2023-11-21T03:02:14;97627.19;;;18.99;61.87
56414;BME280;42318;48.452;19.526;2023-11-21T03:05:15;97618.22;;;18.99;61.52
56414;BME280;42318;48.452;19.526;2023-11-21T03:08:16;97617.41;;;18.98;61.29
56414;BME280;42318;48.452;19.526;2023-11-21T03:11:17;97603.28;;;18.96;61.26
56414;BME280;42318;48.452;19.526;2023-11-21T03:14:17;97610.34;;;18.97;61.80
56414;BME280;42318;48.452;19.526;2023-11-21T03:17:18;97609.25;;;18.93;61.54
56414;BME280;42318;48.452;19.526;2023-11-21T03:20:19;97601.13;;;18.98;61.46
56414;BME280;42318;48.452;19.526;2023-11-21T03:23:19;97600.03;;;18.94;61.67
56414;BME280;42318;48.452;19.526;2023-11-21T03:26:20;97598.41;;;18.93;61.34
56414;BME280;42318;48.452;19.526;2023-11-21T03:29:20;97607.63;;;18.97;61.39
56414;BME280;42318;48.452;19.526;2023-11-21T03:32:21;97600.31;;;18.98;61.35
56414;BME280;42318;48.452;19.526;2023-11-21T03:35:22;97597.59;;;18.98;61.45
56414;BME280;42318;48.452;19.526;2023-11-21T03:38:23;97578.31;;;18.94;61.69
56414;BME280;42318;48.452;19.526;2023-11-21T03:41:23;97586.75;;;18.98;61.60
56414;BME280;42318;48.452;19.526;2023-11-21T03:44:24;97587.00;;;18.96;61.32
56414;BME280;42318;48.452;19.526;2023-11-21T03:47:26;97588.63;;;18.97;61.37
56414;BME280;42318;48.452;19.526;2023-11-21T03:50:28;97580.75;;;18.96;61.68
56414;BME280;42318;48.452;19.526;2023-11-21T03:53:29;97579.69;;;18.97;61.28
56414;BME280;42318;48.452;19.526;2023-11-21T03:56:30;97583.22;;;18.97;61.49
56414;BME280;42318;48.452;19.526;2023-11-21T03:59:30;97573.44;;;18.96;61.26
56414;BME280;42318;48.452;19.526;2023-11-21T04:02:31;97582.41;;;18.97;61.24
56414;BME280;42318;48.452;19.526;2023-11-21T04:05:31;97574.53;;;18.95;61.43
56414;BME280;42318;48.452;19.526;2023-11-21T04:08:32;97565.28;;;18.96;61.14
56414;BME280;42318;48.452;19.526;2023-11-21T04:11:34;97558.22;;;18.95;61.21
56414;BME280;42318;48.452;19.526;2023-11-21T04:14:34;97568.00;;;18.96;61.44
56414;BME280;42318;48.452;19.526;2023-11-21T04:17:35;97563.66;;;18.95;61.58
56414;BME280;42318;48.452;19.526;2023-11-21T04:20:37;97562.56;;;18.96;61.48
56414;BME280;42318;48.452;19.526;2023-11-21T04:23:37;97578.06;;;18.96;61.03
56414;BME280;42318;48.452;19.526;2023-11-21T04:26:38;97571.81;;;18.95;61.09
56414;BME280;42318;48.452;19.526;2023-11-21T04:29:38;97567.47;;;18.94;61.38
56414;BME280;42318;48.452;19.526;2023-11-21T04:32:39;97576.16;;;18.96;61.57
56414;BME280;42318;48.452;19.526;2023-11-21T04:35:40;97575.34;;;18.96;61.35
56414;BME280;42318;48.452;19.526;2023-11-21T04:38:40;97576.97;;;18.97;61.49
56414;BME280;42318;48.452;19.526;2023-11-21T04:41:41;97581.59;;;18.96;61.49
56414;BME280;42318;48.452;19.526;2023-11-21T04:44:42;97581.59;;;18.96;61.33
56414;BME280;42318;48.452;19.526;2023-11-21T04:47:44;97572.88;;;18.94;61.14
56414;BME280;42318;48.452;19.526;2023-11-21T04:50:45;97574.78;;;18.94;61.10
56414;BME280;42318;48.452;19.526;2023-11-21T04:53:46;97576.41;;;18.90;61.26
56414;BME280;42318;48.452;19.526;2023-11-21T04:56:47;97591.06;;;18.94;61.23
56414;BME280;42318;48.452;19.526;2023-11-21T04:59:48;97582.13;;;18.93;61.17
56414;BME280;42318;48.452;19.526;2023-11-21T05:02:49;97600.56;;;18.91;61.12
56414;BME280;42318;48.452;19.526;2023-11-21T05:05:50;97603.56;;;18.95;61.34
56414;BME280;42318;48.452;19.526;2023-11-21T05:08:50;97620.94;;;18.94;61.31
56414;BME280;42318;48.452;19.526;2023-11-21T05:11:51;97631.53;;;18.95;61.16
56414;BME280;42318;48.452;19.526;2023-11-21T05:14:51;97636.94;;;18.90;61.27
56414;BME280;42318;48.452;19.526;2023-11-21T05:17:52;97647.28;;;18.93;61.46
56414;BME280;42318;48.452;19.526;2023-11-21T05:20:54;97650.53;;;18.95;61.16
56414;BME280;42318;48.452;19.526;2023-11-21T05:23:54;97653.50;;;18.94;61.22
56414;BME280;42318;48.452;19.526;2023-11-21T05:26:55;97651.63;;;18.94;61.10
56414;BME280;42318;48.452;19.526;2023-11-21T05:29:56;97650.81;;;18.94;61.27
56414;BME280;42318;48.452;19.526;2023-11-21T05:32:57;97646.19;;;18.94;61.09
56414;BME280;42318;48.452;19.526;2023-11-21T05:35:58;97640.75;;;18.89;61.07
56414;BME280;42318;48.452;19.526;2023-11-21T05:38:58;97639.94;;;18.89;61.43
56414;BME280;42318;48.452;19.526;2023-11-21T05:41:59;97637.22;;;18.94;61.10
56414;BME280;42318;48.452;19.526;2023-11-21T05:45:00;97643.47;;;18.94;61.27
56414;BME280;42318;48.452;19.526;2023-11-21T05:48:10;97661.94;;;18.92;61.03
56414;BME280;42318;48.452;19.526;2023-11-21T05:51:11;97671.69;;;18.93;61.53
56414;BME280;42318;48.452;19.526;2023-11-21T05:54:14;97673.59;;;18.93;61.26
56414;BME280;42318;48.452;19.526;2023-11-21T05:57:14;97673.31;;;18.89;61.31
56414;BME280;42318;48.452;19.526;2023-11-21T06:00:15;97684.47;;;18.93;61.15
56414;BME280;42318;48.452;19.526;2023-11-21T06:03:20;97682.56;;;18.93;61.47
56414;BME280;42318;48.452;19.526;2023-11-21T06:06:21;97692.34;;;18.94;61.45
56414;BME280;42318;48.452;19.526;2023-11-21T06:09:26;97686.91;;;18.89;61.18
56414;BME280;42318;48.452;19.526;2023-11-21T06:12:26;97678.22;;;18.92;61.33
56414;BME280;42318;48.452;19.526;2023-11-21T06:15:27;97687.44;;;18.91;61.27
56414;BME280;42318;48.452;19.526;2023-11-21T06:18:28;97688.25;;;18.92;61.79
56414;BME280;42318;48.452;19.526;2023-11-21T06:21:28;97692.59;;;18.93;61.44
56414;BME280;42318;48.452;19.526;2023-11-21T06:24:29;97692.88;;;18.91;61.37
56414;BME280;42318;48.452;19.526;2023-11-21T06:27:30;97694.78;;;18.91;61.25
56414;BME280;42318;48.452;19.526;2023-11-21T06:30:31;97703.72;;;18.91;61.15
56414;BME280;42318;48.452;19.526;2023-11-21T06:33:32;97703.72;;;18.91;61.29
56414;BME280;42318;48.452;19.526;2023-11-21T06:36:33;97703.72;;;18.91;61.22
56414;BME280;42318;48.452;19.526;2023-11-21T06:39:33;97707.25;;;18.92;61.58
56414;BME280;42318;48.452;19.526;2023-11-21T06:42:34;97699.94;;;18.92;61.52
56414;BME280;42318;48.452;19.526;2023-11-21T06:45:35;97705.34;;;18.92;61.39
56414;BME280;42318;48.452;19.526;2023-11-21T06:48:35;97709.97;;;18.92;61.14
56414;BME280;42318;48.452;19.526;2023-11-21T06:51:39;97712.69;;;18.92;61.10
56414;BME280;42318;48.452;19.526;2023-11-21T06:54:39;97713.78;;;18.91;61.20
56414;BME280;42318;48.452;19.526;2023-11-21T06:57:40;97725.44;;;18.91;61.22
56414;BME280;42318;48.452;19.526;2023-11-21T07:00:40;97732.78;;;18.91;61.16
56414;BME280;42318;48.452;19.526;2023-11-21T07:03:46;97731.69;;;18.92;61.02
56414;BME280;42318;48.452;19.526;2023-11-21T07:06:47;97728.69;;;18.88;61.29
56414;BME280;42318;48.452;19.526;2023-11-21T07:09:47;97733.59;;;18.91;61.39
56414;BME280;42318;48.452;19.526;2023-11-21T07:12:49;97725.16;;;18.88;61.48
56414;BME280;42318;48.452;19.526;2023-11-21T07:15:51;97732.50;;;18.92;61.34
56414;BME280;42318;48.452;19.526;2023-11-21T07:18:52;97723.53;;;18.92;61.48
56414;BME280;42318;48.452;19.526;2023-11-21T07:21:55;97727.34;;;18.91;61.02
56414;BME280;42318;48.452;19.526;2023-11-21T07:24:56;97745.53;;;18.90;61.12
56414;BME280;42318;48.452;19.526;2023-11-21T07:27:59;97745.53;;;18.90;61.42
56414;BME280;42318;48.452;19.526;2023-11-21T07:31:01;97741.72;;;18.91;61.63
56414;BME280;42318;48.452;19.526;2023-11-21T07:34:02;97739.00;;;18.91;61.70
56414;BME280;42318;48.452;19.526;2023-11-21T07:37:03;97746.91;;;18.93;61.97
56414;BME280;42318;48.452;19.526;2023-11-21T07:40:04;97743.38;;;18.92;61.63
56414;BME280;42318;48.452;19.526;2023-11-21T07:43:05;97739.00;;;18.91;61.84
56414;BME280;42318;48.452;19.526;2023-11-21T07:46:06;97738.22;;;18.96;61.82
56414;BME280;42318;48.452;19.526;2023-11-21T07:49:06;97740.13;;;18.95;62.01
56414;BME280;42318;48.452;19.526;2023-11-21T07:52:07;97738.47;;;18.94;61.69
56414;BME280;42318;48.452;19.526;2023-11-21T07:55:08;97745.56;;;19.00;61.75
56414;BME280;42318;48.452;19.526;2023-11-21T07:58:08;97746.38;;;19.01;61.75
56414;BME280;42318;48.452;19.526;2023-11-21T08:01:09;97739.31;;;19.00;62.00
56414;BME280;42318;48.452;19.526;2023-11-21T08:04:10;97741.22;;;18.99;61.98
56414;BME280;42318;48.452;19.526;2023-11-21T08:07:11;97735.78;;;18.99;61.85
56414;BME280;42318;48.452;19.526;2023-11-21T08:10:12;97727.91;;;18.98;62.03
56414;BME280;42318;48.452;19.526;2023-11-21T08:13:12;97728.72;;;18.98;61.99
56414;BME280;42318;48.452;19.526;2023-11-21T08:16:15;97736.03;;;18.98;62.05
56414;BME280;42318;48.452;19.526;2023-11-21T08:19:17;97735.50;;;18.96;61.95
56414;BME280;42318;48.452;19.526;2023-11-21T08:22:18;97736.88;;;18.98;61.95
56414;BME280;42318;48.452;19.526;2023-11-21T08:25:19;97736.88;;;18.98;61.96
56414;BME280;42318;48.452;19.526;2023-11-21T08:28:21;97728.16;;;18.96;62.45
56414;BME280;42318;48.452;19.526;2023-11-21T08:31:25;97727.09;;;18.97;62.52
56414;BME280;42318;48.452;19.526;2023-11-21T08:34:26;97717.56;;;18.95;62.49
56414;BME280;42318;48.452;19.526;2023-11-21T08:37:27;97728.16;;;18.96;62.71
56414;BME280;42318;48.452;19.526;2023-11-21T08:40:27;97729.81;;;18.97;62.52
56414;BME280;42318;48.452;19.526;2023-11-21T08:43:28;97727.63;;;18.99;62.65
56414;BME280;42318;48.452;19.526;2023-11-21T08:46:29;97730.63;;;18.98;63.05
56414;BME280;42318;48.452;19.526;2023-11-21T08:49:29;97733.06;;;18.99;62.92
56414;BME280;42318;48.452;19.526;2023-11-21T08:52:30;97726.28;;;18.97;62.95
56414;BME280;42318;48.452;19.526;2023-11-21T08:55:31;97730.34;;;18.99;62.82
56414;BME280;42318;48.452;19.526;2023-11-21T08:58:31;97738.50;;;18.99;62.98
56414;BME280;42318;48.452;19.526;2023-11-21T09:01:37;97743.09;;;18.94;62.81
56414;BME280;42318;48.452;19.526;2023-11-21T09:04:37;97743.94;;;18.99;63.14
56414;BME280;42318;48.452;19.526;2023-11-21T09:07:39;97742.28;;;18.98;63.10
56414;BME280;42318;48.452;19.526;2023-11-21T09:10:41;97743.94;;;18.99;63.09
56414;BME280;42318;48.452;19.526;2023-11-21T09:13:43;97744.75;;;19.00;63.28
56414;BME280;42318;48.452;19.526;2023-11-21T09:16:44;97734.69;;;19.00;63.29
56414;BME280;42318;48.452;19.526;2023-11-21T09:19:44;97734.41;;;18.97;63.27
56414;BME280;42318;48.452;19.526;2023-11-21T09:22:51;97730.34;;;18.99;63.24
56414;BME280;42318;48.452;19.526;2023-11-21T09:25:52;97733.63;;;19.01;63.18
56414;BME280;42318;48.452;19.526;2023-11-21T09:28:58;97735.22;;;18.97;58.22
56414;BME280;42318;48.452;19.526;2023-11-21T09:31:59;97736.56;;;18.90;62.37
56414;BME280;42318;48.452;19.526;2023-11-21T09:34:59;97740.09;;;18.90;62.72
56414;BME280;42318;48.452;19.526;2023-11-21T09:38:02;97745.28;;;18.97;62.41
56414;BME280;42318;48.452;19.526;2023-11-21T09:41:20;97743.91;;;18.94;62.77
56414;BME280;42318;48.452;19.526;2023-11-21T09:48:05;97727.63;;;18.94;62.94
56414;BME280;42318;48.452;19.526;2023-11-21T09:51:07;97733.06;;;18.99;63.01
56414;BME280;42318;48.452;19.526;2023-11-21T09:54:10;97727.63;;;18.99;62.73
56414;BME280;42318;48.452;19.526;2023-11-21T09:57:11;97724.38;;;18.97;62.70
56414;BME280;42318;48.452;19.526;2023-11-21T10:00:13;97721.94;;;19.01;62.95
56414;BME280;42318;48.452;19.526;2023-11-21T10:03:17;97720.84;;;19.02;62.73
56414;BME280;42318;48.452;19.526;2023-11-21T10:06:18;97722.47;;;19.03;62.63
56414;BME280;42318;48.452;19.526;2023-11-21T10:09:19;97722.22;;;19.04;62.82
56414;BME280;42318;48.452;19.526;2023-11-21T10:12:22;97723.03;;;19.05;62.83
56414;BME280;42318;48.452;19.526;2023-11-21T10:15:24;97712.44;;;19.03;62.69
56414;BME280;42318;48.452;19.526;2023-11-21T10:18:28;97708.63;;;19.04;62.47
56414;BME280;42318;48.452;19.526;2023-11-21T10:21:28;97711.09;;;19.06;62.72
56414;BME280;42318;48.452;19.526;2023-11-21T10:24:30;97696.97;;;19.04;62.49
56414;BME280;42318;48.452;19.526;2023-11-21T10:27:30;97704.03;;;19.05;62.79
56414;BME280;42318;48.452;19.526;2023-11-21T10:30:35;97692.34;;;18.99;62.74
56414;BME280;42318;48.452;19.526;2023-11-21T10:33:37;97700.75;;;19.03;62.62
56414;BME280;42318;48.452;19.526;2023-11-21T10:36:38;97707.28;;;19.07;62.65
56414;BME280;42318;48.452;19.526;2023-11-21T10:39:39;97707.06;;;19.08;62.35
56414;BME280;42318;48.452;19.526;2023-11-21T10:42:40;97709.75;;;19.08;62.38
56414;BME280;42318;48.452;19.526;2023-11-21T10:45:42;97698.91;;;19.08;62.46
56414;BME280;42318;48.452;19.526;2023-11-21T10:48:43;97701.63;;;19.08;62.33
56414;BME280;42318;48.452;19.526;2023-11-21T10:51:44;97693.97;;;19.05;62.14
56414;BME280;42318;48.452;19.526;2023-11-21T10:54:45;97686.66;;;19.06;62.44
56414;BME280;42318;48.452;19.526;2023-11-21T10:57:48;97688.56;;;19.05;62.47
56414;BME280;42318;48.452;19.526;2023-11-21T11:00:49;97696.19;;;19.08;62.58
56414;BME280;42318;48.452;19.526;2023-11-21T11:03:52;97680.72;;;19.09;62.62
56414;BME280;42318;48.452;19.526;2023-11-21T11:06:57;97681.53;;;19.09;62.58
56414;BME280;42318;48.452;19.526;2023-11-21T11:10:02;97678.81;;;19.09;62.43
56414;BME280;42318;48.452;19.526;2023-11-21T11:13:06;97674.47;;;19.08;62.43
56414;BME280;42318;48.452;19.526;2023-11-21T11:16:08;97682.63;;;19.08;62.51
56414;BME280;42318;48.452;19.526;2023-11-21T11:19:11;97669.03;;;19.08;62.43
56414;BME280;42318;48.452;19.526;2023-11-21T11:22:30;97663.34;;;19.10;62.28
56414;BME280;42318;48.452;19.526;2023-11-21T11:25:43;97671.47;;;19.10;62.20
56414;BME280;42318;48.452;19.526;2023-11-21T11:35:48;97681.53;;;19.09;62.20
56414;BME280;42318;48.452;19.526;2023-11-21T11:38:52;97670.94;;;19.08;61.93
56414;BME280;42318;48.452;19.526;2023-11-21T11:41:53;97678.00;;;19.09;62.14
56414;BME280;42318;48.452;19.526;2023-11-21T11:44:54;97686.16;;;19.09;62.37
56414;BME280;42318;48.452;19.526;2023-11-21T11:47:59;97689.69;;;19.09;62.43
56414;BME280;42318;48.452;19.526;2023-11-21T11:51:02;97682.63;;;19.08;62.46
56414;BME280;42318;48.452;19.526;2023-11-21T11:54:06;97685.88;;;19.10;62.43
56414;BME280;42318;48.452;19.526;2023-11-21T11:57:10;97690.50;;;19.10;62.51
56414;BME280;42318;48.452;19.526;2023-11-21T12:03:22;97689.94;;;19.13;62.39
56414;BME280;42318;48.452;19.526;2023-11-21T12:06:33;97701.63;;;19.13;62.33
56414;BME280;42318;48.452;19.526;2023-11-21T12:09:34;97681.00;;;19.12;62.54
56414;BME280;42318;48.452;19.526;2023-11-21T12:12:36;97689.69;;;19.14;62.28
56414;BME280;42318;48.452;19.526;2023-11-21T12:15:37;97678.81;;;19.14;62.33
56414;BME280;42318;48.452;19.526;2023-11-21T12:18:38;97675.56;;;19.12;62.08
56414;BME280;42318;48.452;19.526;2023-11-21T12:21:39;97675.56;;;19.12;62.38
56414;BME280;42318;48.452;19.526;2023-11-21T12:24:43;97673.38;;;19.14;62.08
56414;BME280;42318;48.452;19.526;2023-11-21T12:27:51;97679.38;;;19.17;62.33
56414;BME280;42318;48.452;19.526;2023-11-21T12:30:52;97670.69;;;19.14;62.39
56414;BME280;42318;48.452;19.526;2023-11-21T12:33:53;97667.69;;;19.11;62.15
56414;BME280;42318;48.452;19.526;2023-11-21T12:36:53;97664.69;;;19.12;62.27
56414;BME280;42318;48.452;19.526;2023-11-21T12:39:55;97666.88;;;19.16;62.04
56414;BME280;42318;48.452;19.526;2023-11-21T12:42:59;97652.22;;;19.17;61.93
56414;BME280;42318;48.452;19.526;2023-11-21T12:46:06;97656.81;;;19.16;62.12
56414;BME280;42318;48.452;19.526;2023-11-21T12:49:07;97659.00;;;19.19;62.17
56414;BME280;42318;48.452;19.526;2023-11-21T12:52:08;97640.81;;;19.09;61.96
56414;BME280;42318;48.452;19.526;2023-11-21T12:55:09;97654.94;;;19.17;62.03
56414;BME280;42318;48.452;19.526;2023-11-21T12:58:11;97657.63;;;19.17;62.13
56414;BME280;42318;48.452;19.526;2023-11-21T13:01:13;97657.63;;;19.17;62.06
56414;BME280;42318;48.452;19.526;2023-11-21T13:04:18;97659.25;;;19.12;62.02
56414;BME280;42318;48.452;19.526;2023-11-21T13:07:19;97666.59;;;19.12;61.88
56414;BME280;42318;48.452;19.526;2023-11-21T13:10:25;97665.50;;;19.13;61.91
56414;BME280;42318;48.452;19.526;2023-11-21T13:13:29;97665.25;;;19.09;61.82
56414;BME280;42318;48.452;19.526;2023-11-21T13:16:30;97673.13;;;19.11;62.06
56414;BME280;42318;48.452;19.526;2023-11-21T13:19:31;97685.88;;;19.10;61.98
56414;BME280;42318;48.452;19.526;2023-11-21T13:22:32;97680.44;;;19.10;62.29
56414;BME280;42318;48.452;19.526;2023-11-21T13:25:33;97683.97;;;19.11;62.23
56414;BME280;42318;48.452;19.526;2023-11-21T13:28:35;97681.53;;;19.09;61.70
56414;BME280;42318;48.452;19.526;2023-11-21T13:31:37;97676.06;;;19.04;61.79
56414;BME280;42318;48.452;19.526;2023-11-21T13:34:39;97688.03;;;19.08;61.74
56414;BME280;42318;48.452;19.526;2023-11-21T13:37:45;97699.97;;;19.07;61.84
56414;BME280;42318;48.452;19.526;2023-11-21T13:40:51;97708.09;;;19.07;62.03
56414;BME280;42318;48.452;19.526;2023-11-21T13:43:53;97701.63;;;19.08;61.89
56414;BME280;42318;48.452;19.526;2023-11-21T13:47:04;97701.63;;;19.08;62.11
56414;BME280;42318;48.452;19.526;2023-11-21T13:50:06;97699.44;;;19.10;61.87
56414;BME280;42318;48.452;19.526;2023-11-21T13:53:17;97703.75;;;19.06;61.98
56414;BME280;42318;48.452;19.526;2023-11-21T13:56:23;97705.16;;;19.09;61.88
56414;BME280;42318;48.452;19.526;2023-11-21T13:59:25;97713.28;;;19.09;61.88
56414;BME280;42318;48.452;19.526;2023-11-21T14:02:28;97714.63;;;19.06;62.16
56414;BME280;42318;48.452;19.526;2023-11-21T14:05:35;97717.91;;;19.08;62.03
56414;BME280;42318;48.452;19.526;2023-11-21T14:08:35;97720.63;;;19.08;62.26
56414;BME280;42318;48.452;19.526;2023-11-21T14:11:36;97715.19;;;19.08;62.38
56414;BME280;42318;48.452;19.526;2023-11-21T14:14:38;97719.53;;;19.09;62.26
56414;BME280;42318;48.452;19.526;2023-11-21T14:17:40;97722.25;;;19.09;62.18
56414;BME280;42318;48.452;19.526;2023-11-21T14:20:42;97728.78;;;19.08;62.15
56414;BME280;42318;48.452;19.526;2023-11-21T14:23:43;97724.97;;;19.09;62.24
56414;BME280;42318;48.452;19.526;2023-11-21T14:26:46;97719.22;;;19.06;62.32
56414;BME280;42318;48.452;19.526;2023-11-21T14:29:47;97723.84;;;19.05;62.29
56414;BME280;42318;48.452;19.526;2023-11-21T14:32:48;97727.66;;;19.04;62.04
56414;BME280;42318;48.452;19.526;2023-11-21T14:35:50;97737.41;;;19.05;62.17
56414;BME280;42318;48.452;19.526;2023-11-21T14:38:50;97717.59;;;19.00;62.09
56414;BME280;42318;48.452;19.526;2023-11-21T14:41:52;97731.72;;;19.02;62.27
56414;BME280;42318;48.452;19.526;2023-11-21T14:44:53;97732.78;;;19.01;62.30
56414;BME280;42318;48.452;19.526;2023-11-21T14:47:58;97734.44;;;19.02;62.16
56414;BME280;42318;48.452;19.526;2023-11-21T14:51:06;97741.75;;;19.01;62.17
56414;BME280;42318;48.452;19.526;2023-11-21T14:54:07;97755.34;;;19.01;62.54
56414;BME280;42318;48.452;19.526;2023-11-21T14:57:14;97756.16;;;19.02;62.32
56414;BME280;42318;48.452;19.526;2023-11-21T15:00:19;97752.34;;;19.03;62.56
56414;BME280;42318;48.452;19.526;2023-11-21T15:03:35;97756.97;;;19.02;62.20
56414;BME280;42318;48.452;19.526;2023-11-21T15:06:49;97757.22;;;19.01;62.42
56414;BME280;42318;48.452;19.526;2023-11-21T15:09:51;97760.22;;;18.99;62.41
56414;BME280;42318;48.452;19.526;2023-11-21T15:12:54;97767.28;;;19.00;62.56
56414;BME280;42318;48.452;19.526;2023-11-21T15:15:54;97764.81;;;18.99;62.34
56414;BME280;42318;48.452;19.526;2023-11-21T15:18:55;97771.88;;;19.00;62.16
56414;BME280;42318;48.452;19.526;2023-11-21T15:21:55;97768.34;;;18.94;62.46
56414;BME280;42318;48.452;19.526;2023-11-21T15:24:56;97785.47;;;19.00;62.39
56414;BME280;42318;48.452;19.526;2023-11-21T15:27:58;97783.00;;;18.98;62.59
56414;BME280;42318;48.452;19.526;2023-11-21T15:30:59;97800.13;;;18.99;62.46
56414;BME280;42318;48.452;19.526;2023-11-21T15:33:59;97793.88;;;18.98;62.22
56414;BME280;42318;48.452;19.526;2023-11-21T15:37:00;97797.66;;;18.97;62.26
56414;BME280;42318;48.452;19.526;2023-11-21T15:40:01;97802.03;;;18.98;62.44
56414;BME280;42318;48.452;19.526;2023-11-21T15:43:06;97799.56;;;18.97;62.15
56414;BME280;42318;48.452;19.526;2023-11-21T15:46:07;97804.19;;;18.96;62.45
56414;BME280;42318;48.452;19.526;2023-11-21T15:49:10;97809.63;;;18.96;62.40
56414;BME280;42318;48.452;19.526;2023-11-21T15:52:13;97815.84;;;18.97;62.40
56414;BME280;42318;48.452;19.526;2023-11-21T15:55:14;97816.94;;;18.96;62.37
56414;BME280;42318;48.452;19.526;2023-11-21T15:58:15;97814.22;;;18.96;62.39
56414;BME280;42318;48.452;19.526;2023-11-21T16:01:15;97802.56;;;18.95;62.40
56414;BME280;42318;48.452;19.526;2023-11-21T16:04:16;97812.59;;;18.95;62.49